createdAt,value
2022-10-06T00:00:11.448Z,9.60
2022-10-06T00:02:40.084Z,10.00
2022-10-06T00:05:09.290Z,10.00
2022-10-06T00:07:37.849Z,10.03
2022-10-06T00:10:10.026Z,9.90
2022-10-06T00:12:42.700Z,9.50
2022-10-06T00:15:15.896Z,9.50
2022-10-06T00:17:44.501Z,9.73
2022-10-06T00:20:13.219Z,9.50
2022-10-06T00:22:44.136Z,10.00
2022-10-06T00:25:17.756Z,9.40
2022-10-06T00:27:49.494Z,9.33
2022-10-06T00:30:22.777Z,9.63
2022-10-06T00:32:57.171Z,9.30
2022-10-06T00:35:26.888Z,9.80
2022-10-06T00:37:55.763Z,9.70
2022-10-06T00:40:25.891Z,9.70
2022-10-06T00:42:58.203Z,9.50
2022-10-06T00:45:34.069Z,9.70
2022-10-06T00:48:06.948Z,9.83
2022-10-06T00:50:36.713Z,9.90
2022-10-06T00:53:07.141Z,9.60
2022-10-06T00:55:37.106Z,9.50
2022-10-06T00:58:06.997Z,9.80
2022-10-06T01:00:36.161Z,9.80
2022-10-06T01:03:10.569Z,9.73
2022-10-06T01:05:46.714Z,9.50
2022-10-06T01:08:15.925Z,9.87
2022-10-06T01:10:46.020Z,9.73
2022-10-06T01:13:15.879Z,9.97
2022-10-06T01:15:51.683Z,10.00
2022-10-06T01:18:23.880Z,9.50
2022-10-06T01:21:03.597Z,9.83
2022-10-06T01:23:36.022Z,10.00
2022-10-06T01:26:09.759Z,9.70
2022-10-06T01:28:39.831Z,10.10
2022-10-06T01:31:10.674Z,10.20
2022-10-06T01:33:39.288Z,9.70
2022-10-06T01:36:08.637Z,10.00
2022-10-06T01:38:38.588Z,9.97
2022-10-06T01:41:07.413Z,9.70
2022-10-06T01:43:37.084Z,9.87
2022-10-06T01:46:07.478Z,10.37
2022-10-06T01:48:38.322Z,10.07
2022-10-06T01:51:08.752Z,10.27
2022-10-06T01:53:39.899Z,9.83
2022-10-06T01:56:08.433Z,9.77
2022-10-06T01:58:37.444Z,9.60
2022-10-06T02:01:08.082Z,10.10
2022-10-06T02:03:38.257Z,9.80
2022-10-06T02:06:08.025Z,9.60
2022-10-06T02:08:37.249Z,9.43
2022-10-06T02:11:10.709Z,9.50
2022-10-06T02:13:46.529Z,9.93
2022-10-06T02:16:15.265Z,10.20
2022-10-06T02:18:45.149Z,14.03
2022-10-06T02:21:18.787Z,9.80
2022-10-06T02:23:48.087Z,9.57
2022-10-06T02:26:19.245Z,9.50
2022-10-06T02:28:50.238Z,9.53
2022-10-06T02:31:22.611Z,10.70
2022-10-06T02:33:51.710Z,9.90
2022-10-06T02:36:22.862Z,9.30
2022-10-06T02:38:51.696Z,9.60
2022-10-06T02:41:22.366Z,9.90
2022-10-06T02:43:50.914Z,9.50
2022-10-06T02:46:19.532Z,9.50
2022-10-06T02:48:51.955Z,9.40
2022-10-06T02:51:22.189Z,9.40
2022-10-06T02:53:52.903Z,9.33
2022-10-06T02:56:24.964Z,9.40
2022-10-06T02:58:54.853Z,9.30
2022-10-06T03:01:30.660Z,9.27
2022-10-06T03:04:02.088Z,9.20
2022-10-06T03:06:32.676Z,9.60
2022-10-06T03:09:30.607Z,9.30
2022-10-06T03:12:00.764Z,9.50
2022-10-06T03:14:38.802Z,9.20
2022-10-06T03:17:09.969Z,9.33
2022-10-06T03:19:43.063Z,9.20
2022-10-06T03:22:12.129Z,9.70
2022-10-06T03:24:47.337Z,9.20
2022-10-06T03:27:17.284Z,9.23
2022-10-06T03:29:46.111Z,9.27
2022-10-06T03:32:16.103Z,9.20
2022-10-06T03:34:46.827Z,9.40
2022-10-06T03:37:19.216Z,9.20
2022-10-06T03:39:47.854Z,9.70
2022-10-06T03:42:18.291Z,9.30
2022-10-06T03:44:47.607Z,9.30
2022-10-06T03:47:17.518Z,9.80
2022-10-06T03:49:47.372Z,9.30
2022-10-06T03:52:21.259Z,9.30
2022-10-06T03:54:54.462Z,9.17
2022-10-06T03:57:25.176Z,9.30
2022-10-06T03:59:53.868Z,9.10
2022-10-06T04:02:22.489Z,9.40
2022-10-06T04:04:51.072Z,9.20
2022-10-06T04:07:19.751Z,9.80
2022-10-06T04:09:48.469Z,9.70
2022-10-06T04:12:18.339Z,9.77
2022-10-06T04:14:48.299Z,9.30
2022-10-06T04:17:16.938Z,9.63
2022-10-06T04:19:45.547Z,9.40
2022-10-06T04:22:15.160Z,9.47
2022-10-06T04:24:44.135Z,9.63
2022-10-06T04:27:30.929Z,9.60
2022-10-06T04:30:12.633Z,9.83
2022-10-06T04:32:41.886Z,9.63
2022-10-06T04:35:11.252Z,9.40
2022-10-06T04:37:40.615Z,9.83
2022-10-06T04:40:10.464Z,9.67
2022-10-06T04:42:40.225Z,9.67
2022-10-06T04:45:14.548Z,9.77
2022-10-06T04:47:44.181Z,10.10
2022-10-06T04:50:12.716Z,9.80
2022-10-06T04:53:01.287Z,9.40
2022-10-06T04:55:29.936Z,9.80
2022-10-06T04:57:58.527Z,9.93
2022-10-06T05:00:28.934Z,9.73
2022-10-06T05:02:58.766Z,9.70
2022-10-06T05:05:27.393Z,9.50
2022-10-06T05:07:57.343Z,10.17
2022-10-06T05:10:28.601Z,10.20
2022-10-06T05:12:57.843Z,9.53
2022-10-06T05:15:28.194Z,9.70
2022-10-06T05:17:58.310Z,9.53
2022-10-06T05:20:26.937Z,9.40
2022-10-06T05:22:55.639Z,9.70
2022-10-06T05:25:24.251Z,9.90
2022-10-06T05:27:52.944Z,9.97
2022-10-06T05:30:21.468Z,10.10
2022-10-06T05:32:50.598Z,10.27
2022-10-06T05:35:21.365Z,9.60
2022-10-06T05:37:49.885Z,10.80
2022-10-06T05:40:18.778Z,10.10
2022-10-06T05:42:47.360Z,9.77
2022-10-06T05:45:16.015Z,10.00
2022-10-06T05:47:44.618Z,10.27
2022-10-06T05:50:13.234Z,10.20
2022-10-06T05:52:43.222Z,9.83
2022-10-06T05:55:11.831Z,9.63
2022-10-06T05:57:41.217Z,10.27
2022-10-06T06:00:11.563Z,9.60
2022-10-06T06:02:41.693Z,9.60
2022-10-06T06:05:12.211Z,10.23
2022-10-06T06:07:42.755Z,9.77
2022-10-06T06:10:11.797Z,9.60
2022-10-06T06:12:40.417Z,9.77
2022-10-06T06:15:46.709Z,9.70
2022-10-06T06:18:15.448Z,9.80
2022-10-06T06:20:44.135Z,9.67
2022-10-06T06:23:14.396Z,9.40
2022-10-06T06:25:44.284Z,10.30
2022-10-06T06:28:13.235Z,9.60
2022-10-06T06:30:42.418Z,10.20
2022-10-06T06:33:10.962Z,12.60
2022-10-06T06:35:39.748Z,9.93
2022-10-06T06:38:11.825Z,10.03
2022-10-06T06:40:43.232Z,9.87
2022-10-06T06:43:13.650Z,9.53
2022-10-06T06:46:04.347Z,10.03
2022-10-06T06:48:49.928Z,10.10
2022-10-06T06:51:21.311Z,9.40
2022-10-06T06:53:50.325Z,9.70
2022-10-06T06:56:21.987Z,9.70
2022-10-06T06:58:50.708Z,9.60
2022-10-06T07:01:21.230Z,9.63
2022-10-06T07:03:57.449Z,9.70
2022-10-06T07:06:29.491Z,9.33
2022-10-06T07:09:01.324Z,9.20
2022-10-06T07:11:34.301Z,9.27
2022-10-06T07:14:06.597Z,9.10
2022-10-06T07:17:04.963Z,9.23
2022-10-06T07:19:53.111Z,8.80
2022-10-06T07:22:57.738Z,9.37
2022-10-06T07:25:28.174Z,9.20
2022-10-06T07:28:02.679Z,9.60
2022-10-06T07:30:39.870Z,9.10
2022-10-06T07:33:15.811Z,9.53
2022-10-06T07:35:46.029Z,9.30
2022-10-06T07:38:16.499Z,9.30
2022-10-06T07:41:17.981Z,9.57
2022-10-06T07:43:47.361Z,9.00
2022-10-06T07:46:19.512Z,12.30
2022-10-06T07:48:55.612Z,9.40
2022-10-06T07:51:24.708Z,9.80
2022-10-06T07:53:53.828Z,9.10
2022-10-06T07:56:48.566Z,9.07
2022-10-06T07:59:21.239Z,9.43
2022-10-06T08:01:51.378Z,9.63
2022-10-06T08:04:19.989Z,9.53
2022-10-06T08:06:49.530Z,9.63
2022-10-06T08:09:18.166Z,9.50
2022-10-06T08:11:48.924Z,9.50
2022-10-06T08:14:18.825Z,9.53
2022-10-06T08:16:47.424Z,9.30
2022-10-06T08:19:17.945Z,9.23
2022-10-06T08:21:46.633Z,9.27
2022-10-06T08:24:15.224Z,9.47
2022-10-06T08:26:44.048Z,9.67
2022-10-06T08:29:12.563Z,9.43
2022-10-06T08:31:42.607Z,9.10
2022-10-06T08:34:12.144Z,9.37
2022-10-06T08:36:48.253Z,9.20
2022-10-06T08:39:30.833Z,9.47
2022-10-06T08:41:59.958Z,9.20
2022-10-06T08:44:39.482Z,9.20
2022-10-06T08:47:17.843Z,9.50
2022-10-06T08:49:49.206Z,9.40
2022-10-06T08:52:27.701Z,9.63
2022-10-06T08:55:09.021Z,9.30
2022-10-06T08:57:47.191Z,9.53
2022-10-06T09:00:22.054Z,9.27
2022-10-06T09:02:53.477Z,9.20
2022-10-06T09:05:28.218Z,9.10
2022-10-06T09:08:24.571Z,9.27
2022-10-06T09:11:08.296Z,9.10
2022-10-06T09:13:42.216Z,9.10
2022-10-06T09:16:15.054Z,9.37
2022-10-06T09:19:07.804Z,9.03
2022-10-06T09:21:45.761Z,9.53
2022-10-06T09:24:17.596Z,8.90
2022-10-06T09:26:49.932Z,9.20
2022-10-06T09:29:18.741Z,9.20
2022-10-06T09:31:50.633Z,9.17
2022-10-06T09:34:31.846Z,9.00
2022-10-06T09:37:03.905Z,9.00
2022-10-06T09:39:36.775Z,9.70
2022-10-06T09:42:17.206Z,9.50
2022-10-06T09:44:55.310Z,9.30
2022-10-06T09:47:45.130Z,9.10
2022-10-06T09:50:25.575Z,9.47
2022-10-06T09:53:22.006Z,10.23
2022-10-06T09:55:54.910Z,9.10
2022-10-06T09:58:32.774Z,9.00
2022-10-06T10:01:04.068Z,8.70
2022-10-06T10:04:08.646Z,9.40
2022-10-06T10:06:36.972Z,9.40
2022-10-06T10:09:22.947Z,8.90
2022-10-06T10:12:27.699Z,9.27
2022-10-06T10:14:59.607Z,9.23
2022-10-06T10:17:40.386Z,9.30
2022-10-06T10:20:27.974Z,9.43
2022-10-06T10:23:01.486Z,9.00
2022-10-06T10:26:00.377Z,10.40
2022-10-06T10:28:50.961Z,9.20
2022-10-06T10:31:26.807Z,8.93
2022-10-06T10:34:12.845Z,8.90
2022-10-06T10:36:55.721Z,8.87
2022-10-06T10:39:33.929Z,9.07
2022-10-06T10:42:10.803Z,9.00
2022-10-06T10:44:47.933Z,9.10
2022-10-06T10:47:25.879Z,8.83
2022-10-06T10:50:03.637Z,9.00
2022-10-06T10:52:38.172Z,9.13
2022-10-06T10:55:27.164Z,10.70
2022-10-06T10:58:01.090Z,8.50
2022-10-06T11:00:32.287Z,8.80
2022-10-06T11:03:03.451Z,9.00
2022-10-06T11:05:50.929Z,8.90
2022-10-06T11:08:26.558Z,8.90
2022-10-06T11:11:00.976Z,9.07
2022-10-06T11:13:36.279Z,8.70
2022-10-06T11:16:26.855Z,9.40
2022-10-06T11:19:16.140Z,9.47
2022-10-06T11:21:55.693Z,8.93
2022-10-06T11:24:34.154Z,8.77
2022-10-06T11:27:32.079Z,9.00
2022-10-06T11:30:07.583Z,9.00
2022-10-06T11:32:48.777Z,8.60
2022-10-06T11:35:23.818Z,8.93
2022-10-06T11:38:00.836Z,10.57
2022-10-06T11:40:49.516Z,9.30
2022-10-06T11:43:33.611Z,8.80
2022-10-06T11:46:22.030Z,8.90
2022-10-06T11:48:50.716Z,8.80
2022-10-06T11:51:31.404Z,8.77
2022-10-06T11:54:00.568Z,8.80
2022-10-06T11:56:46.824Z,12.00
2022-10-06T11:59:28.663Z,8.90
2022-10-06T12:02:02.067Z,8.50
2022-10-06T12:04:31.205Z,8.67
2022-10-06T12:07:04.885Z,8.90
2022-10-06T12:09:52.680Z,8.80
2022-10-06T12:13:06.246Z,8.73
2022-10-06T12:17:09.314Z,14.60
2022-10-06T12:19:21.851Z,9.00
2022-10-06T12:22:00.593Z,9.00
2022-10-06T12:24:42.374Z,8.90
2022-10-06T12:27:42.893Z,8.60
2022-10-06T12:30:23.693Z,8.47
2022-10-06T12:32:56.284Z,8.57
2022-10-06T12:35:31.781Z,8.77
2022-10-06T12:38:04.826Z,9.13
2022-10-06T12:40:49.925Z,9.20
2022-10-06T12:43:51.288Z,8.57
2022-10-06T12:46:28.445Z,8.80
2022-10-06T12:49:37.092Z,8.70
2022-10-06T12:52:27.415Z,9.27
2022-10-06T12:55:29.998Z,9.00
2022-10-06T12:57:58.567Z,8.60
2022-10-06T13:00:35.050Z,8.77
2022-10-06T13:03:07.086Z,9.27
2022-10-06T13:05:38.073Z,8.60
2022-10-06T13:08:22.626Z,9.33
2022-10-06T13:10:51.404Z,8.90
2022-10-06T13:13:25.076Z,9.67
2022-10-06T13:15:57.470Z,8.50
2022-10-06T13:18:26.407Z,8.80
2022-10-06T13:20:58.590Z,8.50
2022-10-06T13:23:29.556Z,8.77
2022-10-06T13:26:00.084Z,10.63
2022-10-06T13:28:32.684Z,8.50
2022-10-06T13:31:03.394Z,8.50
2022-10-06T13:33:36.126Z,8.70
2022-10-06T13:36:07.599Z,9.00
2022-10-06T13:38:36.953Z,8.87
2022-10-06T13:41:22.829Z,9.47
2022-10-06T13:43:55.487Z,9.00
2022-10-06T13:46:27.512Z,8.80
2022-10-06T13:49:03.533Z,9.53
2022-10-06T13:51:34.414Z,8.63
2022-10-06T13:54:17.277Z,8.70
2022-10-06T13:56:46.240Z,8.63
2022-10-06T13:59:34.969Z,8.80
2022-10-06T14:02:24.549Z,9.23
2022-10-06T14:05:31.452Z,9.10
2022-10-06T14:08:04.602Z,8.57
2022-10-06T14:10:46.414Z,8.73
2022-10-06T14:13:20.752Z,8.93
2022-10-06T14:15:51.649Z,8.77
2022-10-06T14:18:25.009Z,8.70
2022-10-06T14:20:55.824Z,9.03
2022-10-06T14:23:43.792Z,8.87
2022-10-06T14:26:14.175Z,8.50
2022-10-06T14:28:48.571Z,8.77
2022-10-06T14:31:17.891Z,8.80
2022-10-06T14:33:49.034Z,8.90
2022-10-06T14:36:21.608Z,8.93
2022-10-06T14:38:53.221Z,8.70
2022-10-06T14:41:25.028Z,8.63
2022-10-06T14:43:56.161Z,8.70
2022-10-06T14:46:27.372Z,8.83
2022-10-06T14:48:57.743Z,8.60
2022-10-06T14:51:30.066Z,9.10
2022-10-06T14:54:03.994Z,8.60
2022-10-06T14:56:35.229Z,11.00
2022-10-06T14:59:06.543Z,8.70
2022-10-06T15:01:38.175Z,9.97
2022-10-06T15:04:12.433Z,8.80
2022-10-06T15:06:59.922Z,8.90
2022-10-06T15:09:31.191Z,9.10
2022-10-06T15:12:00.331Z,8.40
2022-10-06T15:14:29.701Z,8.60
2022-10-06T15:17:00.518Z,8.67
2022-10-06T15:19:29.902Z,8.87
2022-10-06T15:21:59.217Z,8.50
2022-10-06T15:24:29.276Z,9.00
2022-10-06T15:27:15.603Z,10.93
2022-10-06T15:29:44.258Z,9.00
2022-10-06T15:32:14.082Z,9.17
2022-10-06T15:34:42.657Z,9.23
2022-10-06T15:37:11.303Z,8.87
2022-10-06T15:39:41.387Z,8.87
2022-10-06T15:42:10.552Z,8.70
2022-10-06T15:44:39.178Z,8.97
2022-10-06T15:47:08.740Z,8.80
2022-10-06T15:49:40.605Z,9.17
2022-10-06T15:52:12.959Z,8.83
2022-10-06T15:54:45.965Z,9.00
2022-10-06T15:57:19.730Z,9.10
2022-10-06T15:59:49.478Z,8.70
2022-10-06T16:02:20.142Z,8.77
2022-10-06T16:05:18.189Z,8.90
2022-10-06T16:07:46.899Z,9.27
2022-10-06T16:10:17.128Z,9.30
2022-10-06T16:12:45.745Z,8.63
2022-10-06T16:15:14.384Z,9.20
2022-10-06T16:17:43.015Z,8.97
2022-10-06T16:20:11.944Z,9.03
2022-10-06T16:22:41.141Z,9.03
2022-10-06T16:25:10.611Z,9.10
2022-10-06T16:27:40.611Z,9.07
2022-10-06T16:30:11.006Z,9.23
2022-10-06T16:32:39.818Z,9.27
2022-10-06T16:35:11.044Z,9.13
2022-10-06T16:37:44.431Z,9.10
2022-10-06T16:40:13.072Z,9.73
2022-10-06T16:42:44.983Z,9.13
2022-10-06T16:45:14.642Z,9.63
2022-10-06T16:47:43.332Z,9.50
2022-10-06T16:50:11.996Z,9.60
2022-10-06T16:52:40.934Z,9.87
2022-10-06T16:55:10.026Z,9.60
2022-10-06T16:57:38.604Z,9.70
2022-10-06T17:00:10.789Z,9.40
2022-10-06T17:02:41.158Z,9.90
2022-10-06T17:05:10.301Z,9.53
2022-10-06T17:07:38.848Z,9.57
2022-10-06T17:10:20.200Z,9.73
2022-10-06T17:12:49.468Z,9.70
2022-10-06T17:15:19.467Z,9.50
2022-10-06T17:17:48.064Z,9.60
2022-10-06T17:20:17.021Z,9.80
2022-10-06T17:22:45.596Z,10.30
2022-10-06T17:25:14.393Z,9.87
2022-10-06T17:27:43.079Z,9.20
2022-10-06T17:30:14.899Z,10.20
2022-10-06T17:32:47.085Z,9.80
2022-10-06T17:35:15.807Z,9.50
2022-10-06T17:37:44.442Z,9.63
2022-10-06T17:40:13.013Z,9.50
2022-10-06T17:42:42.330Z,9.80
2022-10-06T17:45:11.772Z,9.50
2022-10-06T17:47:41.588Z,9.90
2022-10-06T17:50:11.642Z,9.77
2022-10-06T17:52:40.584Z,9.93
2022-10-06T17:55:10.563Z,9.73
2022-10-06T17:57:39.261Z,9.73
2022-10-06T18:00:09.976Z,9.70
2022-10-06T18:02:40.612Z,9.80
2022-10-06T18:05:11.308Z,9.97
2022-10-06T18:07:40.080Z,10.10
2022-10-06T18:10:26.879Z,9.57
2022-10-06T18:12:55.498Z,10.23
2022-10-06T18:15:24.137Z,10.50
2022-10-06T18:17:52.811Z,10.43
2022-10-06T18:20:22.810Z,9.80
2022-10-06T18:22:51.435Z,10.00
2022-10-06T18:25:26.528Z,9.80
2022-10-06T18:27:56.253Z,9.67
2022-10-06T18:30:29.449Z,9.77
2022-10-06T18:36:09.440Z,10.10
2022-10-06T18:38:45.770Z,9.80
2022-10-06T18:41:16.798Z,10.00
2022-10-06T18:43:46.049Z,10.97
2022-10-06T18:46:46.247Z,10.10
2022-10-06T18:49:17.892Z,10.17
2022-10-06T18:51:51.772Z,10.03
2022-10-06T18:54:25.766Z,10.20
2022-10-06T18:56:55.888Z,10.57
2022-10-06T18:59:27.845Z,11.00
2022-10-06T19:01:58.172Z,13.97
2022-10-06T19:04:27.165Z,14.60
2022-10-06T19:06:57.412Z,14.13
2022-10-06T19:09:27.101Z,12.47
2022-10-06T19:11:58.175Z,12.90
2022-10-06T19:14:31.351Z,14.20
2022-10-06T19:17:02.918Z,13.63
2022-10-06T19:19:33.988Z,22.30
2022-10-06T19:22:06.349Z,17.67
2022-10-06T19:24:37.281Z,22.70
2022-10-06T19:27:12.201Z,23.50
2022-10-06T19:29:45.564Z,20.97
2022-10-06T19:32:17.975Z,18.80
2022-10-06T19:34:48.470Z,15.47
2022-10-06T19:37:18.595Z,14.60
2022-10-06T19:39:50.221Z,14.30
2022-10-06T19:42:38.108Z,12.67
2022-10-06T19:45:09.692Z,20.53
2022-10-06T19:47:39.398Z,12.23
2022-10-06T19:50:12.476Z,10.87
2022-10-06T19:52:43.191Z,12.07
2022-10-06T19:55:11.842Z,11.63
2022-10-06T19:57:40.581Z,11.50
2022-10-06T20:00:11.427Z,11.40
2022-10-06T20:02:43.955Z,11.03
2022-10-06T20:05:14.907Z,10.83
2022-10-06T20:07:47.263Z,11.00
2022-10-06T20:10:16.470Z,11.00
2022-10-06T20:12:45.059Z,11.40
2022-10-06T20:15:14.153Z,10.87
2022-10-06T20:17:44.884Z,10.83
2022-10-06T20:20:14.538Z,10.93
2022-10-06T20:22:44.786Z,10.93
2022-10-06T20:25:13.411Z,10.57
2022-10-06T20:27:42.439Z,10.37
2022-10-06T20:30:12.783Z,11.07
2022-10-06T20:32:45.452Z,10.57
2022-10-06T20:35:15.794Z,10.77
2022-10-06T20:37:47.028Z,10.40
2022-10-06T20:40:33.532Z,11.40
2022-10-06T20:43:02.872Z,10.10
2022-10-06T20:45:31.503Z,10.27
2022-10-06T20:48:04.797Z,11.47
2022-10-06T20:50:35.359Z,11.10
2022-10-06T20:53:05.551Z,11.00
2022-10-06T20:55:35.187Z,11.33
2022-10-06T20:58:04.475Z,10.80
2022-10-06T21:00:36.894Z,11.57
2022-10-06T21:03:06.258Z,11.93
2022-10-06T21:05:35.657Z,11.63
2022-10-06T21:08:06.040Z,11.47
2022-10-06T21:10:35.585Z,11.33
2022-10-06T21:13:04.789Z,12.60
2022-10-06T21:15:33.882Z,11.97
2022-10-06T21:18:06.259Z,11.67
2022-10-06T21:20:35.436Z,11.13
2022-10-06T21:23:05.676Z,11.07
2022-10-06T21:25:38.601Z,11.17
2022-10-06T21:28:07.458Z,10.83
2022-10-06T21:30:36.221Z,10.50
2022-10-06T21:33:05.112Z,11.10
2022-10-06T21:35:33.976Z,10.50
2022-10-06T21:38:02.720Z,10.67
2022-10-06T21:40:36.904Z,10.70
2022-10-06T21:43:06.252Z,10.90
2022-10-06T21:45:34.982Z,10.70
2022-10-06T21:48:03.752Z,11.13
2022-10-06T21:50:32.582Z,10.83
2022-10-06T21:53:01.346Z,10.70
2022-10-06T21:55:30.059Z,10.70
2022-10-06T21:58:00.256Z,11.10
2022-10-06T22:00:29.015Z,11.10
2022-10-06T22:02:57.840Z,11.03
2022-10-06T22:05:26.715Z,10.83
2022-10-06T22:07:55.551Z,11.03
2022-10-06T22:10:24.296Z,10.63
2022-10-06T22:12:53.249Z,10.80
2022-10-06T22:15:23.407Z,11.17
2022-10-06T22:17:52.220Z,10.90
2022-10-06T22:20:21.474Z,11.00
2022-10-06T22:22:52.301Z,10.73
2022-10-06T22:25:21.076Z,10.93
2022-10-06T22:27:50.086Z,11.80
2022-10-06T22:30:20.719Z,11.20
2022-10-06T22:32:51.012Z,10.90
2022-10-06T22:35:20.127Z,10.93
2022-10-06T22:37:51.720Z,10.73
2022-10-06T22:40:20.538Z,11.63
2022-10-06T22:42:49.790Z,11.47
2022-10-06T22:45:19.223Z,11.37
2022-10-06T22:47:48.801Z,10.80
2022-10-06T22:50:19.730Z,11.70
2022-10-06T22:52:49.310Z,11.73
2022-10-06T22:55:20.004Z,11.93
2022-10-06T22:57:49.442Z,11.07
2022-10-06T23:00:19.324Z,11.07
2022-10-06T23:02:49.009Z,10.83
2022-10-06T23:05:19.905Z,11.17
2022-10-06T23:07:50.847Z,11.53
2022-10-06T23:10:20.561Z,10.90
2022-10-06T23:12:50.051Z,11.17
2022-10-06T23:15:19.632Z,11.03
2022-10-06T23:17:49.101Z,11.10
2022-10-06T23:20:20.621Z,11.13
2022-10-06T23:22:50.230Z,11.40
2022-10-06T23:25:27.022Z,11.13
2022-10-06T23:27:59.376Z,10.80
2022-10-06T23:30:31.284Z,10.73
2022-10-06T23:33:00.337Z,10.70
2022-10-06T23:35:30.863Z,11.87
2022-10-06T23:38:00.151Z,11.20
2022-10-06T23:40:31.691Z,10.73
2022-10-06T23:43:00.513Z,11.00
2022-10-06T23:45:29.375Z,10.50
2022-10-06T23:47:58.180Z,11.00
2022-10-06T23:50:26.937Z,10.43
2022-10-06T23:52:57.160Z,11.13
2022-10-06T23:55:25.981Z,10.60
2022-10-06T23:57:54.744Z,11.80
